sensor_id;sensor_type;location;lat;lon;timestamp;temperature;humidity
61392;DHT22;47261;52.892;5.738;2023-01-13T00:01:16;9.40;97.00
61392;DHT22;47261;52.892;5.738;2023-01-13T00:03:43;9.40;96.50
61392;DHT22;47261;52.892;5.738;2023-01-13T00:06:12;9.40;96.40
61392;DHT22;47261;52.892;5.738;2023-01-13T00:08:38;9.40;96.20
61392;DHT22;47261;52.892;5.738;2023-01-13T00:11:04;9.40;96.20
61392;DHT22;47261;52.892;5.738;2023-01-13T00:13:30;9.40;96.00
61392;DHT22;47261;52.892;5.738;2023-01-13T00:16:01;9.40;96.20
61392;DHT22;47261;52.892;5.738;2023-01-13T00:18:27;9.40;96.20
61392;DHT22;47261;52.892;5.738;2023-01-13T00:21:10;9.30;96.20
61392;DHT22;47261;52.892;5.738;2023-01-13T00:23:36;9.30;96.60
61392;DHT22;47261;52.892;5.738;2023-01-13T00:26:05;9.30;96.30
61392;DHT22;47261;52.892;5.738;2023-01-13T00:28:31;9.30;96.30
61392;DHT22;47261;52.892;5.738;2023-01-13T00:31:04;9.30;96.30
61392;DHT22;47261;52.892;5.738;2023-01-13T00:33:29;9.30;96.20
61392;DHT22;47261;52.892;5.738;2023-01-13T00:36:00;9.30;96.20
61392;DHT22;47261;52.892;5.738;2023-01-13T00:38:26;9.30;96.20
61392;DHT22;47261;52.892;5.738;2023-01-13T00:40:57;9.30;96.50
61392;DHT22;47261;52.892;5.738;2023-01-13T00:43:22;9.30;96.60
61392;DHT22;47261;52.892;5.738;2023-01-13T00:45:48;9.20;96.90
61392;DHT22;47261;52.892;5.738;2023-01-13T00:48:17;9.20;97.10
61392;DHT22;47261;52.892;5.738;2023-01-13T00:50:44;9.20;97.00
61392;DHT22;47261;52.892;5.738;2023-01-13T00:53:09;9.30;97.10
61392;DHT22;47261;52.892;5.738;2023-01-13T00:55:35;9.20;96.90
61392;DHT22;47261;52.892;5.738;2023-01-13T00:58:00;9.20;96.80
61392;DHT22;47261;52.892;5.738;2023-01-13T01:00:30;9.20;96.80
61392;DHT22;47261;52.892;5.738;2023-01-13T01:02:56;9.20;96.70
61392;DHT22;47261;52.892;5.738;2023-01-13T01:05:21;9.20;96.80
61392;DHT22;47261;52.892;5.738;2023-01-13T01:07:47;9.20;96.80
61392;DHT22;47261;52.892;5.738;2023-01-13T01:10:13;9.20;96.80
61392;DHT22;47261;52.892;5.738;2023-01-13T01:12:39;9.20;96.80
61392;DHT22;47261;52.892;5.738;2023-01-13T01:15:05;9.20;97.00
61392;DHT22;47261;52.892;5.738;2023-01-13T01:17:33;9.30;96.80
61392;DHT22;47261;52.892;5.738;2023-01-13T01:19:59;9.30;96.60
61392;DHT22;47261;52.892;5.738;2023-01-13T01:22:24;9.30;96.30
61392;DHT22;47261;52.892;5.738;2023-01-13T01:24:50;9.30;96.30
61392;DHT22;47261;52.892;5.738;2023-01-13T01:27:16;9.30;96.40
61392;DHT22;47261;52.892;5.738;2023-01-13T01:29:41;9.30;96.70
61392;DHT22;47261;52.892;5.738;2023-01-13T01:32:07;9.20;96.90
61392;DHT22;47261;52.892;5.738;2023-01-13T01:34:32;9.20;97.10
61392;DHT22;47261;52.892;5.738;2023-01-13T01:36:58;9.20;97.30
61392;DHT22;47261;52.892;5.738;2023-01-13T01:39:24;9.20;97.50
61392;DHT22;47261;52.892;5.738;2023-01-13T01:41:49;9.20;97.60
61392;DHT22;47261;52.892;5.738;2023-01-13T01:47:14;9.20;97.60
61392;DHT22;47261;52.892;5.738;2023-01-13T01:49:42;9.30;97.40
61392;DHT22;47261;52.892;5.738;2023-01-13T01:52:12;9.30;97.40
61392;DHT22;47261;52.892;5.738;2023-01-13T01:57:14;9.40;97.20
61392;DHT22;47261;52.892;5.738;2023-01-13T01:59:42;9.40;97.10
61392;DHT22;47261;52.892;5.738;2023-01-13T02:02:08;9.40;97.00
61392;DHT22;47261;52.892;5.738;2023-01-13T02:04:38;9.50;97.00
61392;DHT22;47261;52.892;5.738;2023-01-13T02:07:05;9.50;97.00
61392;DHT22;47261;52.892;5.738;2023-01-13T02:09:32;9.50;96.90
61392;DHT22;47261;52.892;5.738;2023-01-13T02:11:57;9.50;96.80
61392;DHT22;47261;52.892;5.738;2023-01-13T02:14:42;9.50;96.70
61392;DHT22;47261;52.892;5.738;2023-01-13T02:23:13;9.50;96.50
61392;DHT22;47261;52.892;5.738;2023-01-13T02:28:50;9.50;96.70
61392;DHT22;47261;52.892;5.738;2023-01-13T02:31:42;9.50;96.80
61392;DHT22;47261;52.892;5.738;2023-01-13T02:37:04;9.50;96.90
61392;DHT22;47261;52.892;5.738;2023-01-13T02:39:47;9.50;96.80
61392;DHT22;47261;52.892;5.738;2023-01-13T02:42:24;9.50;96.70
61392;DHT22;47261;52.892;5.738;2023-01-13T02:45:14;9.50;96.70
61392;DHT22;47261;52.892;5.738;2023-01-13T02:47:43;9.60;96.70
61392;DHT22;47261;52.892;5.738;2023-01-13T02:50:15;9.60;96.70
61392;DHT22;47261;52.892;5.738;2023-01-13T02:52:43;9.60;96.80
61392;DHT22;47261;52.892;5.738;2023-01-13T02:55:14;9.60;96.90
61392;DHT22;47261;52.892;5.738;2023-01-13T02:57:42;9.60;96.90
61392;DHT22;47261;52.892;5.738;2023-01-13T03:00:10;9.60;96.90
61392;DHT22;47261;52.892;5.738;2023-01-13T03:02:36;9.60;97.40
61392;DHT22;47261;52.892;5.738;2023-01-13T03:05:03;9.60;97.30
61392;DHT22;47261;52.892;5.738;2023-01-13T03:10:15;9.50;97.50
61392;DHT22;47261;52.892;5.738;2023-01-13T03:15:39;9.50;97.60
61392;DHT22;47261;52.892;5.738;2023-01-13T03:21:08;9.40;97.70
61392;DHT22;47261;52.892;5.738;2023-01-13T03:26:38;9.40;98.10
61392;DHT22;47261;52.892;5.738;2023-01-13T03:31:58;9.30;97.80
61392;DHT22;47261;52.892;5.738;2023-01-13T03:34:53;9.30;97.70
61392;DHT22;47261;52.892;5.738;2023-01-13T03:37:23;9.30;97.70
61392;DHT22;47261;52.892;5.738;2023-01-13T03:39:54;9.30;97.50
61392;DHT22;47261;52.892;5.738;2023-01-13T03:42:27;9.30;97.40
61392;DHT22;47261;52.892;5.738;2023-01-13T03:45:00;9.20;97.30
61392;DHT22;47261;52.892;5.738;2023-01-13T03:47:41;9.30;97.10
61392;DHT22;47261;52.892;5.738;2023-01-13T03:50:14;9.30;96.90
61392;DHT22;47261;52.892;5.738;2023-01-13T03:52:46;9.30;97.00
61392;DHT22;47261;52.892;5.738;2023-01-13T03:55:18;9.30;97.00
61392;DHT22;47261;52.892;5.738;2023-01-13T03:58:03;9.30;96.90
61392;DHT22;47261;52.892;5.738;2023-01-13T04:00:35;9.30;96.90
61392;DHT22;47261;52.892;5.738;2023-01-13T04:03:06;9.30;96.80
61392;DHT22;47261;52.892;5.738;2023-01-13T04:05:37;9.30;96.90
61392;DHT22;47261;52.892;5.738;2023-01-13T04:08:18;9.30;96.60
61392;DHT22;47261;52.892;5.738;2023-01-13T04:13:21;9.30;96.40
61392;DHT22;47261;52.892;5.738;2023-01-13T04:15:48;9.30;96.40
61392;DHT22;47261;52.892;5.738;2023-01-13T04:20:44;9.30;96.40
61392;DHT22;47261;52.892;5.738;2023-01-13T04:23:10;9.40;96.50
61392;DHT22;47261;52.892;5.738;2023-01-13T04:25:38;9.30;96.40
61392;DHT22;47261;52.892;5.738;2023-01-13T04:28:04;9.40;96.30
61392;DHT22;47261;52.892;5.738;2023-01-13T04:30:30;9.40;96.30
61392;DHT22;47261;52.892;5.738;2023-01-13T04:32:55;9.40;95.90
61392;DHT22;47261;52.892;5.738;2023-01-13T04:35:21;9.40;95.90
61392;DHT22;47261;52.892;5.738;2023-01-13T04:37:47;9.40;95.80
61392;DHT22;47261;52.892;5.738;2023-01-13T04:40:13;9.30;95.60
61392;DHT22;47261;52.892;5.738;2023-01-13T04:42:38;9.40;95.70
61392;DHT22;47261;52.892;5.738;2023-01-13T04:45:04;9.40;95.50
61392;DHT22;47261;52.892;5.738;2023-01-13T04:47:30;9.40;95.20
61392;DHT22;47261;52.892;5.738;2023-01-13T04:49:56;9.40;95.10
61392;DHT22;47261;52.892;5.738;2023-01-13T04:52:21;9.40;95.10
61392;DHT22;47261;52.892;5.738;2023-01-13T04:54:47;9.50;95.00
61392;DHT22;47261;52.892;5.738;2023-01-13T04:57:12;9.40;94.80
61392;DHT22;47261;52.892;5.738;2023-01-13T04:59:38;9.50;94.80
61392;DHT22;47261;52.892;5.738;2023-01-13T05:02:06;9.40;94.70
61392;DHT22;47261;52.892;5.738;2023-01-13T05:04:33;9.50;94.20
61392;DHT22;47261;52.892;5.738;2023-01-13T05:06:59;9.50;94.20
61392;DHT22;47261;52.892;5.738;2023-01-13T05:09:25;9.40;94.30
61392;DHT22;47261;52.892;5.738;2023-01-13T05:11:50;9.40;94.30
61392;DHT22;47261;52.892;5.738;2023-01-13T05:14:34;9.40;94.50
61392;DHT22;47261;52.892;5.738;2023-01-13T05:17:21;9.40;94.60
61392;DHT22;47261;52.892;5.738;2023-01-13T05:19:47;9.40;94.60
61392;DHT22;47261;52.892;5.738;2023-01-13T05:22:13;9.40;94.40
61392;DHT22;47261;52.892;5.738;2023-01-13T05:24:57;9.50;94.60
61392;DHT22;47261;52.892;5.738;2023-01-13T05:27:42;9.50;94.60
61392;DHT22;47261;52.892;5.738;2023-01-13T05:30:08;9.50;94.80
61392;DHT22;47261;52.892;5.738;2023-01-13T05:32:34;9.50;94.90
61392;DHT22;47261;52.892;5.738;2023-01-13T05:35:00;9.50;95.00
61392;DHT22;47261;52.892;5.738;2023-01-13T05:37:26;9.50;94.90
61392;DHT22;47261;52.892;5.738;2023-01-13T05:39:52;9.50;94.90
61392;DHT22;47261;52.892;5.738;2023-01-13T05:42:36;9.50;95.20
61392;DHT22;47261;52.892;5.738;2023-01-13T05:45:20;9.50;95.20
61392;DHT22;47261;52.892;5.738;2023-01-13T05:47:46;9.50;95.10
61392;DHT22;47261;52.892;5.738;2023-01-13T05:50:12;9.50;95.00
61392;DHT22;47261;52.892;5.738;2023-01-13T05:52:37;9.50;95.20
61392;DHT22;47261;52.892;5.738;2023-01-13T05:55:04;9.50;95.50
61392;DHT22;47261;52.892;5.738;2023-01-13T05:57:29;9.50;95.50
61392;DHT22;47261;52.892;5.738;2023-01-13T05:59:55;9.50;95.40
61392;DHT22;47261;52.892;5.738;2023-01-13T06:02:21;9.50;95.20
61392;DHT22;47261;52.892;5.738;2023-01-13T06:04:47;9.50;94.80
61392;DHT22;47261;52.892;5.738;2023-01-13T06:07:12;9.40;94.30
61392;DHT22;47261;52.892;5.738;2023-01-13T06:09:38;9.50;94.10
61392;DHT22;47261;52.892;5.738;2023-01-13T06:12:04;9.40;94.10
61392;DHT22;47261;52.892;5.738;2023-01-13T06:14:29;9.40;94.00
61392;DHT22;47261;52.892;5.738;2023-01-13T06:17:12;9.40;94.50
61392;DHT22;47261;52.892;5.738;2023-01-13T06:19:38;9.40;95.20
61392;DHT22;47261;52.892;5.738;2023-01-13T06:22:12;9.40;95.70
61392;DHT22;47261;52.892;5.738;2023-01-13T06:24:39;9.30;96.10
61392;DHT22;47261;52.892;5.738;2023-01-13T06:27:07;9.20;96.20
61392;DHT22;47261;52.892;5.738;2023-01-13T06:29:33;9.20;96.20
61392;DHT22;47261;52.892;5.738;2023-01-13T06:32:02;9.20;96.30
61392;DHT22;47261;52.892;5.738;2023-01-13T06:34:30;9.20;96.70
61392;DHT22;47261;52.892;5.738;2023-01-13T06:36:57;9.10;97.60
61392;DHT22;47261;52.892;5.738;2023-01-13T06:39:24;9.00;98.20
61392;DHT22;47261;52.892;5.738;2023-01-13T06:41:53;8.90;98.80
61392;DHT22;47261;52.892;5.738;2023-01-13T06:44:37;8.90;99.30
61392;DHT22;47261;52.892;5.738;2023-01-13T06:47:03;8.70;99.80
61392;DHT22;47261;52.892;5.738;2023-01-13T06:49:29;8.70;99.90
61392;DHT22;47261;52.892;5.738;2023-01-13T06:51:54;8.60;99.90
61392;DHT22;47261;52.892;5.738;2023-01-13T06:54:20;8.50;99.90
61392;DHT22;47261;52.892;5.738;2023-01-13T06:56:45;8.50;99.90
61392;DHT22;47261;52.892;5.738;2023-01-13T06:59:11;8.50;99.90
61392;DHT22;47261;52.892;5.738;2023-01-13T07:01:37;8.50;99.90
61392;DHT22;47261;52.892;5.738;2023-01-13T07:04:02;8.40;99.90
61392;DHT22;47261;52.892;5.738;2023-01-13T07:06:28;8.40;99.90
61392;DHT22;47261;52.892;5.738;2023-01-13T07:08:54;8.30;99.90
61392;DHT22;47261;52.892;5.738;2023-01-13T07:11:19;8.30;99.90
61392;DHT22;47261;52.892;5.738;2023-01-13T07:13:45;8.30;99.90
61392;DHT22;47261;52.892;5.738;2023-01-13T07:16:29;8.40;99.90
61392;DHT22;47261;52.892;5.738;2023-01-13T07:18:55;8.40;99.90
61392;DHT22;47261;52.892;5.738;2023-01-13T07:21:20;8.40;99.90
61392;DHT22;47261;52.892;5.738;2023-01-13T07:23:47;8.40;99.90
61392;DHT22;47261;52.892;5.738;2023-01-13T07:26:14;8.40;99.90
61392;DHT22;47261;52.892;5.738;2023-01-13T07:28:40;8.40;99.90
61392;DHT22;47261;52.892;5.738;2023-01-13T07:31:17;8.40;99.90
61392;DHT22;47261;52.892;5.738;2023-01-13T07:33:43;8.40;99.90
61392;DHT22;47261;52.892;5.738;2023-01-13T07:36:09;8.50;99.90
61392;DHT22;47261;52.892;5.738;2023-01-13T07:38:35;8.50;99.30
61392;DHT22;47261;52.892;5.738;2023-01-13T07:41:01;8.50;99.40
61392;DHT22;47261;52.892;5.738;2023-01-13T07:43:47;8.60;99.50
61392;DHT22;47261;52.892;5.738;2023-01-13T07:46:13;8.60;99.20
61392;DHT22;47261;52.892;5.738;2023-01-13T07:48:39;8.60;99.00
61392;DHT22;47261;52.892;5.738;2023-01-13T07:51:06;8.70;99.10
61392;DHT22;47261;52.892;5.738;2023-01-13T07:53:33;8.70;98.50
61392;DHT22;47261;52.892;5.738;2023-01-13T07:55:59;8.80;98.30
61392;DHT22;47261;52.892;5.738;2023-01-13T07:58:25;8.80;98.20
61392;DHT22;47261;52.892;5.738;2023-01-13T08:00:51;8.80;98.00
61392;DHT22;47261;52.892;5.738;2023-01-13T08:03:17;8.80;98.10
61392;DHT22;47261;52.892;5.738;2023-01-13T08:05:43;8.90;98.10
61392;DHT22;47261;52.892;5.738;2023-01-13T08:08:09;8.90;98.20
61392;DHT22;47261;52.892;5.738;2023-01-13T08:10:35;8.90;98.30
61392;DHT22;47261;52.892;5.738;2023-01-13T08:13:08;8.90;97.90
61392;DHT22;47261;52.892;5.738;2023-01-13T08:15:46;8.90;97.70
61392;DHT22;47261;52.892;5.738;2023-01-13T08:18:12;8.90;97.80
61392;DHT22;47261;52.892;5.738;2023-01-13T08:20:38;9.00;97.80
61392;DHT22;47261;52.892;5.738;2023-01-13T08:23:04;9.00;97.60
61392;DHT22;47261;52.892;5.738;2023-01-13T08:25:30;9.00;97.50
61392;DHT22;47261;52.892;5.738;2023-01-13T08:27:56;9.00;97.30
61392;DHT22;47261;52.892;5.738;2023-01-13T08:30:24;9.00;97.40
61392;DHT22;47261;52.892;5.738;2023-01-13T08:32:50;9.10;97.40
61392;DHT22;47261;52.892;5.738;2023-01-13T08:35:17;9.10;97.10
61392;DHT22;47261;52.892;5.738;2023-01-13T08:37:43;9.10;97.40
61392;DHT22;47261;52.892;5.738;2023-01-13T08:40:10;9.10;97.60
61392;DHT22;47261;52.892;5.738;2023-01-13T08:42:36;9.10;98.00
61392;DHT22;47261;52.892;5.738;2023-01-13T08:45:02;9.10;98.10
61392;DHT22;47261;52.892;5.738;2023-01-13T08:47:28;9.10;98.40
61392;DHT22;47261;52.892;5.738;2023-01-13T08:49:54;9.00;98.60
61392;DHT22;47261;52.892;5.738;2023-01-13T08:52:19;8.90;98.80
61392;DHT22;47261;52.892;5.738;2023-01-13T08:54:45;8.90;98.80
61392;DHT22;47261;52.892;5.738;2023-01-13T08:57:11;8.80;98.90
61392;DHT22;47261;52.892;5.738;2023-01-13T08:59:38;8.80;99.00
61392;DHT22;47261;52.892;5.738;2023-01-13T09:02:15;8.80;98.90
61392;DHT22;47261;52.892;5.738;2023-01-13T09:04:42;8.80;98.80
61392;DHT22;47261;52.892;5.738;2023-01-13T09:07:08;8.90;98.70
61392;DHT22;47261;52.892;5.738;2023-01-13T09:09:35;8.90;98.60
61392;DHT22;47261;52.892;5.738;2023-01-13T09:12:00;8.90;98.40
61392;DHT22;47261;52.892;5.738;2023-01-13T09:14:45;9.00;98.50
61392;DHT22;47261;52.892;5.738;2023-01-13T09:17:10;9.00;98.30
61392;DHT22;47261;52.892;5.738;2023-01-13T09:19:36;9.00;98.90
61392;DHT22;47261;52.892;5.738;2023-01-13T09:22:02;9.00;99.00
61392;DHT22;47261;52.892;5.738;2023-01-13T09:24:28;8.90;99.00
61392;DHT22;47261;52.892;5.738;2023-01-13T09:26:54;8.90;98.80
61392;DHT22;47261;52.892;5.738;2023-01-13T09:29:20;9.00;98.90
61392;DHT22;47261;52.892;5.738;2023-01-13T09:31:46;9.00;98.90
61392;DHT22;47261;52.892;5.738;2023-01-13T09:34:14;9.00;98.60
61392;DHT22;47261;52.892;5.738;2023-01-13T09:36:59;9.10;98.70
61392;DHT22;47261;52.892;5.738;2023-01-13T09:39:25;9.00;98.70
61392;DHT22;47261;52.892;5.738;2023-01-13T09:41:53;9.00;99.00
61392;DHT22;47261;52.892;5.738;2023-01-13T09:52:36;8.80;99.90
61392;DHT22;47261;52.892;5.738;2023-01-13T09:55:19;8.70;99.90
61392;DHT22;47261;52.892;5.738;2023-01-13T09:57:47;8.80;99.90
61392;DHT22;47261;52.892;5.738;2023-01-13T10:00:23;8.80;99.70
61392;DHT22;47261;52.892;5.738;2023-01-13T10:03:28;8.90;99.20
61392;DHT22;47261;52.892;5.738;2023-01-13T10:11:01;9.00;98.60
61392;DHT22;47261;52.892;5.738;2023-01-13T10:28:12;9.10;98.60
61392;DHT22;47261;52.892;5.738;2023-01-13T10:30:41;9.10;98.50
61392;DHT22;47261;52.892;5.738;2023-01-13T10:35:52;9.20;98.30
61392;DHT22;47261;52.892;5.738;2023-01-13T10:40:55;9.20;97.80
61392;DHT22;47261;52.892;5.738;2023-01-13T10:43:22;9.30;97.80
61392;DHT22;47261;52.892;5.738;2023-01-13T10:46:05;9.30;97.70
61392;DHT22;47261;52.892;5.738;2023-01-13T10:48:39;9.30;97.50
61392;DHT22;47261;52.892;5.738;2023-01-13T10:56:21;9.40;97.40
61392;DHT22;47261;52.892;5.738;2023-01-13T10:58:47;9.40;97.10
61392;DHT22;47261;52.892;5.738;2023-01-13T11:01:24;9.40;97.20
61392;DHT22;47261;52.892;5.738;2023-01-13T11:03:52;9.40;97.10
61392;DHT22;47261;52.892;5.738;2023-01-13T11:06:20;9.50;97.10
61392;DHT22;47261;52.892;5.738;2023-01-13T11:08:48;9.50;97.10
61392;DHT22;47261;52.892;5.738;2023-01-13T11:13:50;9.50;97.20
61392;DHT22;47261;52.892;5.738;2023-01-13T11:16:36;9.50;97.20
61392;DHT22;47261;52.892;5.738;2023-01-13T11:19:09;9.60;97.10
61392;DHT22;47261;52.892;5.738;2023-01-13T11:21:48;9.60;97.00
61392;DHT22;47261;52.892;5.738;2023-01-13T11:25:08;9.60;96.90
61392;DHT22;47261;52.892;5.738;2023-01-13T11:27:24;9.60;96.90
61392;DHT22;47261;52.892;5.738;2023-01-13T11:35:33;9.70;96.60
61392;DHT22;47261;52.892;5.738;2023-01-13T11:38:33;9.70;96.00
61392;DHT22;47261;52.892;5.738;2023-01-13T11:41:05;9.80;96.40
61392;DHT22;47261;52.892;5.738;2023-01-13T11:43:39;9.80;96.10
61392;DHT22;47261;52.892;5.738;2023-01-13T11:46:08;9.80;95.80
61392;DHT22;47261;52.892;5.738;2023-01-13T11:48:36;9.90;95.80
61392;DHT22;47261;52.892;5.738;2023-01-13T11:59:32;9.90;95.60
61392;DHT22;47261;52.892;5.738;2023-01-13T12:05:18;9.80;95.90
61392;DHT22;47261;52.892;5.738;2023-01-13T12:10:56;9.80;96.00
61392;DHT22;47261;52.892;5.738;2023-01-13T12:16:20;9.80;95.80
61392;DHT22;47261;52.892;5.738;2023-01-13T12:19:23;9.80;96.00
61392;DHT22;47261;52.892;5.738;2023-01-13T12:25:19;9.90;96.00
61392;DHT22;47261;52.892;5.738;2023-01-13T12:27:50;9.90;95.80
61392;DHT22;47261;52.892;5.738;2023-01-13T12:30:41;9.90;95.60
61392;DHT22;47261;52.892;5.738;2023-01-13T12:36:14;9.90;95.80
61392;DHT22;47261;52.892;5.738;2023-01-13T12:38:51;9.90;95.90
61392;DHT22;47261;52.892;5.738;2023-01-13T12:41:26;9.90;95.90
61392;DHT22;47261;52.892;5.738;2023-01-13T12:43:54;9.90;95.70
61392;DHT22;47261;52.892;5.738;2023-01-13T12:46:53;9.90;95.80
61392;DHT22;47261;52.892;5.738;2023-01-13T12:49:27;9.90;95.80
61392;DHT22;47261;52.892;5.738;2023-01-13T12:57:19;9.90;95.90
61392;DHT22;47261;52.892;5.738;2023-01-13T13:08:01;9.90;95.70
61392;DHT22;47261;52.892;5.738;2023-01-13T13:10:32;9.90;95.70
61392;DHT22;47261;52.892;5.738;2023-01-13T13:13:06;9.90;95.80
61392;DHT22;47261;52.892;5.738;2023-01-13T13:15:46;9.90;95.70
61392;DHT22;47261;52.892;5.738;2023-01-13T13:18:19;9.90;95.60
61392;DHT22;47261;52.892;5.738;2023-01-13T13:21:00;9.90;95.90
61392;DHT22;47261;52.892;5.738;2023-01-13T13:37:42;9.80;95.90
61392;DHT22;47261;52.892;5.738;2023-01-13T13:40:37;9.80;95.90
61392;DHT22;47261;52.892;5.738;2023-01-13T13:43:22;9.80;96.00
61392;DHT22;47261;52.892;5.738;2023-01-13T13:46:31;9.80;96.10
61392;DHT22;47261;52.892;5.738;2023-01-13T13:49:18;9.80;96.00
61392;DHT22;47261;52.892;5.738;2023-01-13T13:52:02;9.80;95.90
61392;DHT22;47261;52.892;5.738;2023-01-13T13:54:29;9.80;95.80
61392;DHT22;47261;52.892;5.738;2023-01-13T13:56:55;9.80;95.60
61392;DHT22;47261;52.892;5.738;2023-01-13T13:59:25;9.80;95.80
61392;DHT22;47261;52.892;5.738;2023-01-13T14:01:54;9.80;95.70
61392;DHT22;47261;52.892;5.738;2023-01-13T14:04:26;9.80;95.70
61392;DHT22;47261;52.892;5.738;2023-01-13T14:07:02;9.80;95.60
61392;DHT22;47261;52.892;5.738;2023-01-13T14:09:43;9.80;95.60
61392;DHT22;47261;52.892;5.738;2023-01-13T14:12:20;9.80;95.50
61392;DHT22;47261;52.892;5.738;2023-01-13T14:14:47;9.90;95.40
61392;DHT22;47261;52.892;5.738;2023-01-13T14:17:23;9.80;95.50
61392;DHT22;47261;52.892;5.738;2023-01-13T14:20:13;9.80;95.60
61392;DHT22;47261;52.892;5.738;2023-01-13T14:22:48;9.80;95.60
61392;DHT22;47261;52.892;5.738;2023-01-13T14:30:59;9.80;95.50
61392;DHT22;47261;52.892;5.738;2023-01-13T14:33:59;9.90;95.20
61392;DHT22;47261;52.892;5.738;2023-01-13T14:41:49;9.80;95.60
61392;DHT22;47261;52.892;5.738;2023-01-13T14:44:28;9.80;95.50
61392;DHT22;47261;52.892;5.738;2023-01-13T14:46:57;9.80;95.70
61392;DHT22;47261;52.892;5.738;2023-01-13T14:49:34;9.70;95.70
61392;DHT22;47261;52.892;5.738;2023-01-13T14:52:14;9.70;95.60
61392;DHT22;47261;52.892;5.738;2023-01-13T14:54:46;9.70;95.50
61392;DHT22;47261;52.892;5.738;2023-01-13T15:08:03;9.50;96.80
61392;DHT22;47261;52.892;5.738;2023-01-13T15:10:34;9.40;97.00
61392;DHT22;47261;52.892;5.738;2023-01-13T15:13:04;9.40;97.50
61392;DHT22;47261;52.892;5.738;2023-01-13T15:15:32;9.30;97.70
61392;DHT22;47261;52.892;5.738;2023-01-13T15:18:00;9.30;97.80
61392;DHT22;47261;52.892;5.738;2023-01-13T15:20:26;9.30;98.10
61392;DHT22;47261;52.892;5.738;2023-01-13T15:22:53;9.20;98.10
61392;DHT22;47261;52.892;5.738;2023-01-13T15:25:19;9.20;98.30
61392;DHT22;47261;52.892;5.738;2023-01-13T15:27:46;9.20;98.30
61392;DHT22;47261;52.892;5.738;2023-01-13T15:30:23;9.20;98.20
61392;DHT22;47261;52.892;5.738;2023-01-13T15:32:56;9.20;98.30
61392;DHT22;47261;52.892;5.738;2023-01-13T15:35:24;9.20;98.20
61392;DHT22;47261;52.892;5.738;2023-01-13T15:37:50;9.20;98.20
61392;DHT22;47261;52.892;5.738;2023-01-13T15:40:25;9.20;98.00
61392;DHT22;47261;52.892;5.738;2023-01-13T15:42:54;9.20;98.00
61392;DHT22;47261;52.892;5.738;2023-01-13T15:45:39;9.20;98.00
61392;DHT22;47261;52.892;5.738;2023-01-13T15:48:25;9.20;98.10
61392;DHT22;47261;52.892;5.738;2023-01-13T15:50:52;9.20;98.20
61392;DHT22;47261;52.892;5.738;2023-01-13T15:53:18;9.20;98.30
61392;DHT22;47261;52.892;5.738;2023-01-13T15:55:46;9.10;98.50
61392;DHT22;47261;52.892;5.738;2023-01-13T15:58:14;9.10;98.70
61392;DHT22;47261;52.892;5.738;2023-01-13T16:00:41;9.10;98.90
61392;DHT22;47261;52.892;5.738;2023-01-13T16:03:13;9.00;98.90
61392;DHT22;47261;52.892;5.738;2023-01-13T16:05:39;9.00;99.20
61392;DHT22;47261;52.892;5.738;2023-01-13T16:08:16;9.00;99.30
61392;DHT22;47261;52.892;5.738;2023-01-13T16:10:43;9.00;99.70
61392;DHT22;47261;52.892;5.738;2023-01-13T16:13:13;9.00;99.40
61392;DHT22;47261;52.892;5.738;2023-01-13T16:15:44;9.00;99.40
61392;DHT22;47261;52.892;5.738;2023-01-13T16:18:16;9.00;99.20
61392;DHT22;47261;52.892;5.738;2023-01-13T16:20:42;9.00;99.20
61392;DHT22;47261;52.892;5.738;2023-01-13T16:23:08;9.00;99.00
61392;DHT22;47261;52.892;5.738;2023-01-13T16:25:34;9.00;99.00
61392;DHT22;47261;52.892;5.738;2023-01-13T16:28:00;9.10;98.90
61392;DHT22;47261;52.892;5.738;2023-01-13T16:30:31;9.10;99.00
61392;DHT22;47261;52.892;5.738;2023-01-13T16:32:57;9.00;99.00
61392;DHT22;47261;52.892;5.738;2023-01-13T16:35:24;9.10;99.00
61392;DHT22;47261;52.892;5.738;2023-01-13T16:37:50;9.10;99.10
61392;DHT22;47261;52.892;5.738;2023-01-13T16:42:51;9.00;99.10
61392;DHT22;47261;52.892;5.738;2023-01-13T16:45:17;9.10;99.10
61392;DHT22;47261;52.892;5.738;2023-01-13T16:47:44;9.00;99.20
61392;DHT22;47261;52.892;5.738;2023-01-13T16:52:44;9.00;99.50
61392;DHT22;47261;52.892;5.738;2023-01-13T16:55:10;9.00;99.50
61392;DHT22;47261;52.892;5.738;2023-01-13T16:57:35;9.00;99.70
61392;DHT22;47261;52.892;5.738;2023-01-13T17:00:02;9.00;99.70
61392;DHT22;47261;52.892;5.738;2023-01-13T17:02:28;9.00;99.50
61392;DHT22;47261;52.892;5.738;2023-01-13T17:04:54;9.00;99.40
61392;DHT22;47261;52.892;5.738;2023-01-13T17:07:19;9.10;99.30
61392;DHT22;47261;52.892;5.738;2023-01-13T17:09:45;9.10;99.20
61392;DHT22;47261;52.892;5.738;2023-01-13T17:12:11;9.10;99.10
61392;DHT22;47261;52.892;5.738;2023-01-13T17:14:36;9.20;99.10
61392;DHT22;47261;52.892;5.738;2023-01-13T17:17:02;9.20;99.10
61392;DHT22;47261;52.892;5.738;2023-01-13T17:19:28;9.20;99.10
61392;DHT22;47261;52.892;5.738;2023-01-13T17:21:53;9.20;99.00
61392;DHT22;47261;52.892;5.738;2023-01-13T17:24:19;9.20;99.00
61392;DHT22;47261;52.892;5.738;2023-01-13T17:26:47;9.20;99.00
61392;DHT22;47261;52.892;5.738;2023-01-13T17:29:21;9.10;99.00
61392;DHT22;47261;52.892;5.738;2023-01-13T17:31:51;9.10;99.00
61392;DHT22;47261;52.892;5.738;2023-01-13T17:34:17;9.10;99.00
61392;DHT22;47261;52.892;5.738;2023-01-13T17:36:43;9.20;98.90
61392;DHT22;47261;52.892;5.738;2023-01-13T17:39:15;9.20;98.90
61392;DHT22;47261;52.892;5.738;2023-01-13T17:41:40;9.20;98.70
61392;DHT22;47261;52.892;5.738;2023-01-13T17:44:06;9.20;98.50
61392;DHT22;47261;52.892;5.738;2023-01-13T17:46:32;9.20;98.40
61392;DHT22;47261;52.892;5.738;2023-01-13T17:48:57;9.30;98.40
61392;DHT22;47261;52.892;5.738;2023-01-13T17:51:23;9.30;98.20
61392;DHT22;47261;52.892;5.738;2023-01-13T17:53:51;9.30;98.10
61392;DHT22;47261;52.892;5.738;2023-01-13T17:56:16;9.30;98.10
61392;DHT22;47261;52.892;5.738;2023-01-13T17:58:43;9.30;98.10
61392;DHT22;47261;52.892;5.738;2023-01-13T18:01:16;9.30;98.20
61392;DHT22;47261;52.892;5.738;2023-01-13T18:03:42;9.30;98.10
61392;DHT22;47261;52.892;5.738;2023-01-13T18:06:16;9.30;98.30
61392;DHT22;47261;52.892;5.738;2023-01-13T18:08:42;9.20;98.60
61392;DHT22;47261;52.892;5.738;2023-01-13T18:11:07;9.20;99.00
61392;DHT22;47261;52.892;5.738;2023-01-13T18:13:34;9.10;99.20
61392;DHT22;47261;52.892;5.738;2023-01-13T18:16:05;9.10;99.50
61392;DHT22;47261;52.892;5.738;2023-01-13T18:18:33;9.10;99.70
61392;DHT22;47261;52.892;5.738;2023-01-13T18:20:59;9.10;99.90
61392;DHT22;47261;52.892;5.738;2023-01-13T18:23:44;9.00;99.90
61392;DHT22;47261;52.892;5.738;2023-01-13T18:26:39;9.00;99.90
61392;DHT22;47261;52.892;5.738;2023-01-13T18:29:23;9.00;99.90
61392;DHT22;47261;52.892;5.738;2023-01-13T18:31:49;9.00;99.70
61392;DHT22;47261;52.892;5.738;2023-01-13T18:34:17;9.00;99.60
61392;DHT22;47261;52.892;5.738;2023-01-13T18:36:42;9.00;99.50
61392;DHT22;47261;52.892;5.738;2023-01-13T18:39:08;9.00;99.30
61392;DHT22;47261;52.892;5.738;2023-01-13T18:41:34;9.00;99.10
61392;DHT22;47261;52.892;5.738;2023-01-13T18:44:18;9.00;98.90
61392;DHT22;47261;52.892;5.738;2023-01-13T18:46:44;9.10;98.70